sensor_id;sensor_type;location;lat;lon;timestamp;pressure;altitude;pressure_sealevel;temperature;humidity
63321;BME280;49449;48.800;9.534;2023-07-13T00:00:27;98483.19;;;22.00;34.12
63321;BME280;49449;48.800;9.534;2023-07-13T00:02:56;98477.25;;;21.89;34.32
63321;BME280;49449;48.800;9.534;2023-07-13T00:05:24;98471.22;;;21.84;34.54
63321;BME280;49449;48.800;9.534;2023-07-13T00:07:53;98471.03;;;21.80;34.45
63321;BME280;49449;48.800;9.534;2023-07-13T00:10:22;98479.88;;;21.81;34.26
63321;BME280;49449;48.800;9.534;2023-07-13T00:12:50;98476.19;;;21.77;34.17
63321;BME280;49449;48.800;9.534;2023-07-13T00:15:24;98467.16;;;21.72;34.17
63321;BME280;49449;48.800;9.534;2023-07-13T00:17:54;98468.13;;;21.77;33.96
63321;BME280;49449;48.800;9.534;2023-07-13T00:20:24;98473.81;;;21.75;34.03
63321;BME280;49449;48.800;9.534;2023-07-13T00:22:52;98481.38;;;21.73;34.00
63321;BME280;49449;48.800;9.534;2023-07-13T00:25:21;98485.97;;;21.72;33.83
63321;BME280;49449;48.800;9.534;2023-07-13T00:27:53;98491.66;;;21.71;33.97
63321;BME280;49449;48.800;9.534;2023-07-13T00:30:22;98491.16;;;21.69;34.07
63321;BME280;49449;48.800;9.534;2023-07-13T00:32:50;98488.69;;;21.59;34.06
63321;BME280;49449;48.800;9.534;2023-07-13T00:35:25;98479.53;;;21.60;33.96
63321;BME280;49449;48.800;9.534;2023-07-13T00:37:53;98491.47;;;21.67;33.93
63321;BME280;49449;48.800;9.534;2023-07-13T00:40:21;98493.16;;;21.63;33.71
63321;BME280;49449;48.800;9.534;2023-07-13T00:42:51;98497.75;;;21.63;33.70
63321;BME280;49449;48.800;9.534;2023-07-13T00:48:26;98503.84;;;21.54;33.07
63321;BME280;49449;48.800;9.534;2023-07-13T00:50:59;98498.53;;;21.63;32.50
63321;BME280;49449;48.800;9.534;2023-07-13T00:53:29;98504.31;;;21.70;31.46
63321;BME280;49449;48.800;9.534;2023-07-13T00:55:58;98497.03;;;21.71;31.26
63321;BME280;49449;48.800;9.534;2023-07-13T00:58:27;98503.06;;;21.77;31.38
63321;BME280;49449;48.800;9.534;2023-07-13T01:00:56;98505.66;;;21.82;31.27
63321;BME280;49449;48.800;9.534;2023-07-13T01:03:23;98515.81;;;21.85;31.05
63321;BME280;49449;48.800;9.534;2023-07-13T01:05:51;98513.91;;;21.85;31.13
63321;BME280;49449;48.800;9.534;2023-07-13T01:08:22;98517.72;;;21.84;31.02
63321;BME280;49449;48.800;9.534;2023-07-13T01:10:54;98506.97;;;21.84;31.02
63321;BME280;49449;48.800;9.534;2023-07-13T01:13:22;98506.09;;;21.75;30.96
63321;BME280;49449;48.800;9.534;2023-07-13T01:15:51;98506.28;;;21.79;30.88
63321;BME280;49449;48.800;9.534;2023-07-13T01:18:23;98513.53;;;21.78;30.70
63321;BME280;49449;48.800;9.534;2023-07-13T01:20:54;98509.00;;;21.65;30.82
63321;BME280;49449;48.800;9.534;2023-07-13T01:23:23;98512.28;;;21.62;31.04
63321;BME280;49449;48.800;9.534;2023-07-13T01:25:52;98505.72;;;21.68;30.88
63321;BME280;49449;48.800;9.534;2023-07-13T01:28:22;98503.81;;;21.68;30.43
63321;BME280;49449;48.800;9.534;2023-07-13T01:30:54;98507.41;;;21.64;30.43
63321;BME280;49449;48.800;9.534;2023-07-13T01:33:22;98511.28;;;21.44;30.57
63321;BME280;49449;48.800;9.534;2023-07-13T01:35:54;98515.47;;;21.36;30.93
63321;BME280;49449;48.800;9.534;2023-07-13T01:38:24;98509.28;;;21.22;31.04
63321;BME280;49449;48.800;9.534;2023-07-13T01:40:52;98519.25;;;21.21;31.17
63321;BME280;49449;48.800;9.534;2023-07-13T01:43:20;98516.38;;;21.04;31.07
63321;BME280;49449;48.800;9.534;2023-07-13T01:45:51;98512.34;;;20.87;30.92
63321;BME280;49449;48.800;9.534;2023-07-13T01:48:19;98516.41;;;20.85;30.79
63321;BME280;49449;48.800;9.534;2023-07-13T01:50:47;98519.91;;;20.85;31.00
63321;BME280;49449;48.800;9.534;2023-07-13T01:53:17;98518.00;;;20.86;30.94
63321;BME280;49449;48.800;9.534;2023-07-13T01:55:44;98518.78;;;20.86;30.94
63321;BME280;49449;48.800;9.534;2023-07-13T01:58:13;98527.47;;;20.83;30.76
63321;BME280;49449;48.800;9.534;2023-07-13T02:00:43;98521.69;;;20.90;30.81
63321;BME280;49449;48.800;9.534;2023-07-13T02:03:11;98524.47;;;20.85;30.72
63321;BME280;49449;48.800;9.534;2023-07-13T02:05:44;98532.09;;;20.77;30.75
63321;BME280;49449;48.800;9.534;2023-07-13T02:08:12;98528.50;;;20.68;30.71
63321;BME280;49449;48.800;9.534;2023-07-13T02:10:41;98524.22;;;20.53;30.64
63321;BME280;49449;48.800;9.534;2023-07-13T02:13:09;98528.75;;;20.53;31.07
63321;BME280;49449;48.800;9.534;2023-07-13T02:15:38;98538.84;;;20.61;30.67
63321;BME280;49449;48.800;9.534;2023-07-13T02:18:08;98529.59;;;20.67;30.91
63321;BME280;49449;48.800;9.534;2023-07-13T02:20:36;98533.50;;;20.75;30.67
63321;BME280;49449;48.800;9.534;2023-07-13T02:23:03;98528.34;;;20.78;30.75
63321;BME280;49449;48.800;9.534;2023-07-13T02:25:33;98535.81;;;20.82;30.55
63321;BME280;49449;48.800;9.534;2023-07-13T02:28:02;98535.81;;;20.82;30.77
63321;BME280;49449;48.800;9.534;2023-07-13T02:30:31;98542.75;;;20.83;31.07
63321;BME280;49449;48.800;9.534;2023-07-13T02:32:59;98533.81;;;20.87;31.15
63321;BME280;49449;48.800;9.534;2023-07-13T02:35:27;98539.50;;;20.86;31.40
63321;BME280;49449;48.800;9.534;2023-07-13T02:37:55;98537.88;;;20.85;31.14
63321;BME280;49449;48.800;9.534;2023-07-13T02:40:23;98533.34;;;20.85;31.29
63321;BME280;49449;48.800;9.534;2023-07-13T02:42:50;98534.69;;;20.83;31.21
63321;BME280;49449;48.800;9.534;2023-07-13T02:45:20;98541.75;;;20.78;31.24
63321;BME280;49449;48.800;9.534;2023-07-13T02:47:47;98539.84;;;20.65;31.57
63321;BME280;49449;48.800;9.534;2023-07-13T02:50:15;98540.03;;;20.69;31.26
63321;BME280;49449;48.800;9.534;2023-07-13T02:52:44;98544.41;;;20.65;31.63
63321;BME280;49449;48.800;9.534;2023-07-13T02:55:11;98547.31;;;20.68;31.85
63321;BME280;49449;48.800;9.534;2023-07-13T02:57:39;98545.94;;;20.71;31.80
63321;BME280;49449;48.800;9.534;2023-07-13T03:00:11;98539.25;;;20.68;32.24
63321;BME280;49449;48.800;9.534;2023-07-13T03:02:40;98548.69;;;20.66;32.14
63321;BME280;49449;48.800;9.534;2023-07-13T03:05:08;98544.69;;;20.63;32.09
63321;BME280;49449;48.800;9.534;2023-07-13T03:07:37;98541.31;;;20.57;32.13
63321;BME280;49449;48.800;9.534;2023-07-13T03:10:06;98550.31;;;20.48;32.39
63321;BME280;49449;48.800;9.534;2023-07-13T03:12:34;98549.72;;;20.51;32.45
63321;BME280;49449;48.800;9.534;2023-07-13T03:15:01;98553.59;;;20.45;32.43
63321;BME280;49449;48.800;9.534;2023-07-13T03:17:29;98553.47;;;20.36;32.55
63321;BME280;49449;48.800;9.534;2023-07-13T03:19:59;98550.66;;;20.27;32.63
63321;BME280;49449;48.800;9.534;2023-07-13T03:22:26;98546.56;;;20.11;32.83
63321;BME280;49449;48.800;9.534;2023-07-13T03:24:55;98555.41;;;19.92;33.22
63321;BME280;49449;48.800;9.534;2023-07-13T03:27:22;98549.47;;;19.95;33.23
63321;BME280;49449;48.800;9.534;2023-07-13T03:29:50;98553.72;;;19.96;33.67
63321;BME280;49449;48.800;9.534;2023-07-13T03:32:18;98557.66;;;20.04;33.20
63321;BME280;49449;48.800;9.534;2023-07-13T03:34:46;98570.63;;;19.97;33.25
63321;BME280;49449;48.800;9.534;2023-07-13T03:37:15;98563.50;;;19.87;33.48
63321;BME280;49449;48.800;9.534;2023-07-13T03:39:43;98570.88;;;19.76;33.54
63321;BME280;49449;48.800;9.534;2023-07-13T03:42:11;98582.47;;;19.72;33.91
63321;BME280;49449;48.800;9.534;2023-07-13T03:44:39;98579.84;;;19.66;33.61
63321;BME280;49449;48.800;9.534;2023-07-13T03:47:07;98588.41;;;19.69;33.79
63321;BME280;49449;48.800;9.534;2023-07-13T03:49:35;98586.03;;;19.67;33.52
63321;BME280;49449;48.800;9.534;2023-07-13T03:52:04;98593.25;;;19.66;33.84
63321;BME280;49449;48.800;9.534;2023-07-13T03:54:33;98592.44;;;19.66;33.47
63321;BME280;49449;48.800;9.534;2023-07-13T03:57:01;98592.22;;;19.62;33.65
63321;BME280;49449;48.800;9.534;2023-07-13T03:59:28;98597.09;;;19.55;34.07
63321;BME280;49449;48.800;9.534;2023-07-13T04:01:56;98599.56;;;19.52;34.11
63321;BME280;49449;48.800;9.534;2023-07-13T04:04:24;98602.69;;;19.59;34.23
63321;BME280;49449;48.800;9.534;2023-07-13T04:06:52;98592.72;;;19.64;34.10
63321;BME280;49449;48.800;9.534;2023-07-13T04:09:20;98600.16;;;19.73;33.89
63321;BME280;49449;48.800;9.534;2023-07-13T04:11:49;98596.03;;;19.80;33.83
63321;BME280;49449;48.800;9.534;2023-07-13T04:14:17;98600.25;;;19.86;33.69
63321;BME280;49449;48.800;9.534;2023-07-13T04:16:45;98591.72;;;19.84;33.22
63321;BME280;49449;48.800;9.534;2023-07-13T04:19:13;98590.59;;;19.85;33.87
63321;BME280;49449;48.800;9.534;2023-07-13T04:21:41;98600.47;;;19.90;33.38
63321;BME280;49449;48.800;9.534;2023-07-13T04:24:09;98602.81;;;19.97;33.78
63321;BME280;49449;48.800;9.534;2023-07-13T04:26:36;98602.50;;;19.98;33.84
63321;BME280;49449;48.800;9.534;2023-07-13T04:29:06;98603.53;;;20.02;33.54
63321;BME280;49449;48.800;9.534;2023-07-13T04:31:34;98615.03;;;20.03;34.89
63321;BME280;49449;48.800;9.534;2023-07-13T04:34:02;98611.72;;;20.11;34.20
63321;BME280;49449;48.800;9.534;2023-07-13T04:36:30;98625.94;;;20.12;34.23
63321;BME280;49449;48.800;9.534;2023-07-13T04:38:58;98625.94;;;20.12;34.71
63321;BME280;49449;48.800;9.534;2023-07-13T04:41:26;98625.06;;;20.16;34.42
63321;BME280;49449;48.800;9.534;2023-07-13T04:43:54;98618.31;;;20.19;34.67
63321;BME280;49449;48.800;9.534;2023-07-13T04:46:24;98622.81;;;20.23;34.56
63321;BME280;49449;48.800;9.534;2023-07-13T04:48:55;98618.72;;;20.31;34.41
63321;BME280;49449;48.800;9.534;2023-07-13T04:51:23;98613.56;;;20.35;33.99
63321;BME280;49449;48.800;9.534;2023-07-13T04:53:51;98622.41;;;20.35;34.30
63321;BME280;49449;48.800;9.534;2023-07-13T04:56:22;98611.16;;;20.33;34.46
63321;BME280;49449;48.800;9.534;2023-07-13T04:58:49;98614.50;;;20.44;33.89
63321;BME280;49449;48.800;9.534;2023-07-13T05:01:18;98620.59;;;20.50;33.63
63321;BME280;49449;48.800;9.534;2023-07-13T05:03:47;98619.50;;;20.51;33.73
63321;BME280;49449;48.800;9.534;2023-07-13T05:06:17;98615.25;;;20.50;33.85
63321;BME280;49449;48.800;9.534;2023-07-13T05:08:45;98614.91;;;20.51;33.60
63321;BME280;49449;48.800;9.534;2023-07-13T05:11:12;98618.50;;;20.47;33.68
63321;BME280;49449;48.800;9.534;2023-07-13T05:13:40;98616.69;;;20.42;33.67
63321;BME280;49449;48.800;9.534;2023-07-13T05:16:11;98618.06;;;20.39;34.06
63321;BME280;49449;48.800;9.534;2023-07-13T05:18:39;98624.22;;;20.40;33.87
63321;BME280;49449;48.800;9.534;2023-07-13T05:21:10;98623.72;;;20.38;33.87
63321;BME280;49449;48.800;9.534;2023-07-13T05:23:39;98634.44;;;20.38;33.82
63321;BME280;49449;48.800;9.534;2023-07-13T05:26:08;98633.06;;;20.40;33.98
63321;BME280;49449;48.800;9.534;2023-07-13T05:28:36;98632.56;;;20.38;33.89
63321;BME280;49449;48.800;9.534;2023-07-13T05:31:05;98634.97;;;20.40;33.82
63321;BME280;49449;48.800;9.534;2023-07-13T05:33:34;98631.19;;;20.41;33.77
63321;BME280;49449;48.800;9.534;2023-07-13T05:36:02;98631.97;;;20.41;34.00
63321;BME280;49449;48.800;9.534;2023-07-13T05:38:31;98628.72;;;20.45;34.03
63321;BME280;49449;48.800;9.534;2023-07-13T05:41:00;98627.06;;;20.49;34.02
63321;BME280;49449;48.800;9.534;2023-07-13T05:43:30;98627.75;;;20.54;33.95
63321;BME280;49449;48.800;9.534;2023-07-13T05:45:57;98626.41;;;20.57;33.71
63321;BME280;49449;48.800;9.534;2023-07-13T05:48:25;98630.09;;;20.61;33.80
63321;BME280;49449;48.800;9.534;2023-07-13T05:50:53;98630.28;;;20.65;33.71
63321;BME280;49449;48.800;9.534;2023-07-13T05:53:21;98635.88;;;20.68;34.08
63321;BME280;49449;48.800;9.534;2023-07-13T05:55:50;98642.09;;;20.64;34.22
63321;BME280;49449;48.800;9.534;2023-07-13T05:58:19;98641.31;;;20.63;33.94
63321;BME280;49449;48.800;9.534;2023-07-13T06:00:48;98645.69;;;20.59;34.17
63321;BME280;49449;48.800;9.534;2023-07-13T06:03:16;98633.84;;;20.60;33.87
63321;BME280;49449;48.800;9.534;2023-07-13T06:05:44;98640.09;;;20.55;34.04
63321;BME280;49449;48.800;9.534;2023-07-13T06:08:12;98644.75;;;20.50;33.54
63321;BME280;49449;48.800;9.534;2023-07-13T06:10:40;98643.22;;;20.43;32.99
63321;BME280;49449;48.800;9.534;2023-07-13T06:13:11;98650.97;;;20.45;32.65
63321;BME280;49449;48.800;9.534;2023-07-13T06:15:39;98655.19;;;20.51;32.55
63321;BME280;49449;48.800;9.534;2023-07-13T06:18:07;98656.72;;;20.57;32.66
63321;BME280;49449;48.800;9.534;2023-07-13T06:20:34;98653.94;;;20.63;32.87
63321;BME280;49449;48.800;9.534;2023-07-13T06:23:02;98651.97;;;20.68;32.46
63321;BME280;49449;48.800;9.534;2023-07-13T06:25:30;98654.88;;;20.72;32.56
63321;BME280;49449;48.800;9.534;2023-07-13T06:27:58;98659.38;;;20.76;32.47
63321;BME280;49449;48.800;9.534;2023-07-13T06:30:28;98669.81;;;20.97;32.10
63321;BME280;49449;48.800;9.534;2023-07-13T06:32:55;98669.78;;;21.16;32.29
63321;BME280;49449;48.800;9.534;2023-07-13T06:35:23;98676.38;;;21.37;32.20
63321;BME280;49449;48.800;9.534;2023-07-13T06:37:51;98672.56;;;21.58;30.53
63321;BME280;49449;48.800;9.534;2023-07-13T06:40:21;98674.56;;;21.80;30.48
63321;BME280;49449;48.800;9.534;2023-07-13T06:42:52;98687.31;;;22.02;30.17
63321;BME280;49449;48.800;9.534;2023-07-13T06:45:21;98690.59;;;22.12;29.75
63321;BME280;49449;48.800;9.534;2023-07-13T06:47:53;98691.09;;;22.28;29.82
63321;BME280;49449;48.800;9.534;2023-07-13T06:50:21;98697.06;;;22.25;29.15
63321;BME280;49449;48.800;9.534;2023-07-13T06:52:49;98692.66;;;22.29;29.12
63321;BME280;49449;48.800;9.534;2023-07-13T06:55:17;98692.06;;;22.33;29.04
63321;BME280;49449;48.800;9.534;2023-07-13T06:57:44;98696.75;;;22.41;28.73
63321;BME280;49449;48.800;9.534;2023-07-13T07:00:13;98685.66;;;22.56;28.40
63321;BME280;49449;48.800;9.534;2023-07-13T07:02:41;98692.88;;;22.69;28.13
63321;BME280;49449;48.800;9.534;2023-07-13T07:05:10;98688.38;;;22.79;28.24
63321;BME280;49449;48.800;9.534;2023-07-13T07:07:38;98688.13;;;22.89;28.46
63321;BME280;49449;48.800;9.534;2023-07-13T07:10:07;98689.16;;;23.02;27.63
63321;BME280;49449;48.800;9.534;2023-07-13T07:12:35;98690.53;;;23.13;28.38
63321;BME280;49449;48.800;9.534;2023-07-13T07:15:03;98690.69;;;23.17;27.12
63321;BME280;49449;48.800;9.534;2023-07-13T07:17:32;98687.69;;;23.41;26.00
63321;BME280;49449;48.800;9.534;2023-07-13T07:19:59;98700.66;;;23.39;26.19
63321;BME280;49449;48.800;9.534;2023-07-13T07:22:29;98694.88;;;23.54;26.92
63321;BME280;49449;48.800;9.534;2023-07-13T07:24:57;98695.19;;;23.53;26.10
63321;BME280;49449;48.800;9.534;2023-07-13T07:27:27;98697.47;;;23.68;26.13
63321;BME280;49449;48.800;9.534;2023-07-13T07:29:58;98688.19;;;23.92;25.57
63321;BME280;49449;48.800;9.534;2023-07-13T07:32:30;98691.75;;;24.01;25.96
63321;BME280;49449;48.800;9.534;2023-07-13T07:35:01;98692.75;;;24.23;24.54
63321;BME280;49449;48.800;9.534;2023-07-13T07:37:31;98691.00;;;24.18;24.11
63321;BME280;49449;48.800;9.534;2023-07-13T07:40:01;98691.78;;;23.70;24.49
63321;BME280;49449;48.800;9.534;2023-07-13T07:42:32;98689.06;;;24.01;25.11
63321;BME280;49449;48.800;9.534;2023-07-13T07:45:00;98688.00;;;24.28;24.94
63321;BME280;49449;48.800;9.534;2023-07-13T07:47:28;98699.91;;;24.36;23.70
63321;BME280;49449;48.800;9.534;2023-07-13T07:49:56;98701.81;;;24.44;24.87
63321;BME280;49449;48.800;9.534;2023-07-13T07:52:27;98707.13;;;24.67;23.87
63321;BME280;49449;48.800;9.534;2023-07-13T07:54:56;98704.09;;;24.77;24.30
63321;BME280;49449;48.800;9.534;2023-07-13T07:57:44;98699.94;;;24.97;23.35
63321;BME280;49449;48.800;9.534;2023-07-13T08:00:16;98696.28;;;25.19;23.49
63321;BME280;49449;48.800;9.534;2023-07-13T08:02:47;98686.53;;;25.36;22.98
63321;BME280;49449;48.800;9.534;2023-07-13T08:05:17;98694.66;;;25.27;22.43
63321;BME280;49449;48.800;9.534;2023-07-13T08:07:48;98688.63;;;25.30;22.37
63321;BME280;49449;48.800;9.534;2023-07-13T08:10:18;98690.59;;;25.50;22.63
63321;BME280;49449;48.800;9.534;2023-07-13T08:12:45;98692.81;;;25.57;22.36
63321;BME280;49449;48.800;9.534;2023-07-13T08:15:17;98696.47;;;25.61;22.32
63321;BME280;49449;48.800;9.534;2023-07-13T08:17:47;98691.72;;;25.58;23.35
63321;BME280;49449;48.800;9.534;2023-07-13T08:20:16;98696.91;;;25.81;22.64
63321;BME280;49449;48.800;9.534;2023-07-13T08:22:44;98707.59;;;25.98;22.13
63321;BME280;49449;48.800;9.534;2023-07-13T08:25:12;98699.13;;;26.09;22.01
63321;BME280;49449;48.800;9.534;2023-07-13T08:27:44;98699.09;;;26.17;21.32
63321;BME280;49449;48.800;9.534;2023-07-13T08:30:12;98702.03;;;26.33;21.31
63321;BME280;49449;48.800;9.534;2023-07-13T08:32:40;98697.00;;;26.44;21.02
63321;BME280;49449;48.800;9.534;2023-07-13T08:35:08;98701.31;;;26.45;19.59
63321;BME280;49449;48.800;9.534;2023-07-13T08:37:35;98697.19;;;26.39;20.48
63321;BME280;49449;48.800;9.534;2023-07-13T08:40:04;98698.84;;;26.31;22.00
63321;BME280;49449;48.800;9.534;2023-07-13T08:42:37;98702.34;;;26.32;20.43
63321;BME280;49449;48.800;9.534;2023-07-13T08:45:14;98699.84;;;26.48;20.62
63321;BME280;49449;48.800;9.534;2023-07-13T08:47:49;98704.06;;;26.57;21.31
63321;BME280;49449;48.800;9.534;2023-07-13T08:50:24;98707.59;;;26.79;20.34
63321;BME280;49449;48.800;9.534;2023-07-13T08:52:57;98704.53;;;26.59;19.10
63321;BME280;49449;48.800;9.534;2023-07-13T08:55:28;98704.94;;;26.49;19.22
63321;BME280;49449;48.800;9.534;2023-07-13T08:58:01;98708.56;;;26.74;20.02
63321;BME280;49449;48.800;9.534;2023-07-13T09:00:38;98710.59;;;26.98;20.28
63321;BME280;49449;48.800;9.534;2023-07-13T09:03:16;98704.69;;;27.17;19.32
63321;BME280;49449;48.800;9.534;2023-07-13T09:05:52;98700.75;;;27.27;19.16
63321;BME280;49449;48.800;9.534;2023-07-13T09:08:38;98704.50;;;27.23;18.50
63321;BME280;49449;48.800;9.534;2023-07-13T09:11:22;98701.06;;;27.13;18.48
63321;BME280;49449;48.800;9.534;2023-07-13T09:13:58;98709.16;;;27.01;17.76
63321;BME280;49449;48.800;9.534;2023-07-13T09:16:30;98709.16;;;27.01;18.84
63321;BME280;49449;48.800;9.534;2023-07-13T09:19:04;98708.38;;;27.13;19.11
63321;BME280;49449;48.800;9.534;2023-07-13T09:21:37;98701.66;;;27.19;18.21
63321;BME280;49449;48.800;9.534;2023-07-13T09:24:31;98709.97;;;27.14;18.90
63321;BME280;49449;48.800;9.534;2023-07-13T09:27:09;98708.34;;;27.34;18.45
63321;BME280;49449;48.800;9.534;2023-07-13T09:29:45;98707.59;;;27.46;19.18
63321;BME280;49449;48.800;9.534;2023-07-13T09:32:17;98705.50;;;27.76;19.10
63321;BME280;49449;48.800;9.534;2023-07-13T09:34:50;98706.16;;;27.73;17.29
63321;BME280;49449;48.800;9.534;2023-07-13T09:37:21;98709.97;;;27.60;18.87
63321;BME280;49449;48.800;9.534;2023-07-13T09:39:49;98708.28;;;27.67;18.52
63321;BME280;49449;48.800;9.534;2023-07-13T09:42:20;98700.25;;;27.59;18.55
63321;BME280;49449;48.800;9.534;2023-07-13T09:44:53;98702.78;;;27.76;18.64
63321;BME280;49449;48.800;9.534;2023-07-13T09:47:24;98707.53;;;28.04;17.29
63321;BME280;49449;48.800;9.534;2023-07-13T09:49:57;98707.41;;;28.12;18.45
63321;BME280;49449;48.800;9.534;2023-07-13T09:52:40;98706.47;;;28.08;18.41
63321;BME280;49449;48.800;9.534;2023-07-13T09:55:24;98705.59;;;28.04;19.24
63321;BME280;49449;48.800;9.534;2023-07-13T09:57:53;98707.06;;;28.14;19.01
63321;BME280;49449;48.800;9.534;2023-07-13T10:00:23;98708.44;;;28.20;17.12
63321;BME280;49449;48.800;9.534;2023-07-13T10:03:05;98706.16;;;28.10;18.27
63321;BME280;49449;48.800;9.534;2023-07-13T10:05:40;98699.47;;;28.20;18.62
63321;BME280;49449;48.800;9.534;2023-07-13T10:08:17;98692.59;;;28.22;18.63
63321;BME280;49449;48.800;9.534;2023-07-13T10:10:45;98704.13;;;28.19;18.63
63321;BME280;49449;48.800;9.534;2023-07-13T10:13:26;98719.16;;;28.29;18.09
63321;BME280;49449;48.800;9.534;2023-07-13T10:15:55;98715.97;;;28.39;17.78
63321;BME280;49449;48.800;9.534;2023-07-13T10:18:26;98707.50;;;28.41;18.13
63321;BME280;49449;48.800;9.534;2023-07-13T10:24:00;98707.84;;;28.02;17.08
63321;BME280;49449;48.800;9.534;2023-07-13T10:26:33;98700.28;;;27.96;17.08
63321;BME280;49449;48.800;9.534;2023-07-13T10:29:05;98703.09;;;27.99;17.55
63321;BME280;49449;48.800;9.534;2023-07-13T10:31:38;98694.19;;;27.99;17.55
63321;BME280;49449;48.800;9.534;2023-07-13T10:34:09;98694.75;;;27.92;18.45
63321;BME280;49449;48.800;9.534;2023-07-13T10:36:40;98704.91;;;28.07;19.07
63321;BME280;49449;48.800;9.534;2023-07-13T10:39:16;98692.47;;;28.06;16.14
63321;BME280;49449;48.800;9.534;2023-07-13T10:41:54;98696.91;;;27.99;17.43
63321;BME280;49449;48.800;9.534;2023-07-13T10:44:27;98696.53;;;28.12;17.78
63321;BME280;49449;48.800;9.534;2023-07-13T10:46:59;98694.16;;;28.23;17.32
63321;BME280;49449;48.800;9.534;2023-07-13T10:49:31;98687.97;;;28.23;17.25
63321;BME280;49449;48.800;9.534;2023-07-13T10:51:59;98681.03;;;28.25;16.42
63321;BME280;49449;48.800;9.534;2023-07-13T10:54:30;98681.03;;;28.13;16.73
63321;BME280;49449;48.800;9.534;2023-07-13T10:57:20;98687.84;;;28.07;18.35
63321;BME280;49449;48.800;9.534;2023-07-13T10:59:49;98689.06;;;28.09;18.16
63321;BME280;49449;48.800;9.534;2023-07-13T11:02:37;98693.16;;;28.03;19.57
63321;BME280;49449;48.800;9.534;2023-07-13T11:05:25;98683.53;;;28.06;17.56
63321;BME280;49449;48.800;9.534;2023-07-13T11:08:02;98677.78;;;27.95;18.63
63321;BME280;49449;48.800;9.534;2023-07-13T11:10:47;98685.59;;;27.84;18.37
63321;BME280;49449;48.800;9.534;2023-07-13T11:13:37;98675.28;;;27.53;17.14
63321;BME280;49449;48.800;9.534;2023-07-13T11:16:13;98678.84;;;27.32;18.83
63321;BME280;49449;48.800;9.534;2023-07-13T11:18:44;98689.03;;;27.48;18.63
63321;BME280;49449;48.800;9.534;2023-07-13T11:21:15;98678.09;;;27.56;18.52
63321;BME280;49449;48.800;9.534;2023-07-13T11:24:02;98670.84;;;27.48;19.42
63321;BME280;49449;48.800;9.534;2023-07-13T11:26:39;98662.81;;;27.52;19.57
63321;BME280;49449;48.800;9.534;2023-07-13T11:29:32;98662.94;;;27.43;18.43
63321;BME280;49449;48.800;9.534;2023-07-13T11:32:23;98661.47;;;27.46;18.48
63321;BME280;49449;48.800;9.534;2023-07-13T11:34:54;98667.34;;;27.60;18.43
63321;BME280;49449;48.800;9.534;2023-07-13T11:37:24;98662.72;;;27.61;18.79
63321;BME280;49449;48.800;9.534;2023-07-13T11:39:55;98657.28;;;27.61;19.25
63321;BME280;49449;48.800;9.534;2023-07-13T11:42:23;98657.66;;;27.71;17.86
63321;BME280;49449;48.800;9.534;2023-07-13T11:44:52;98666.25;;;27.73;18.70
63321;BME280;49449;48.800;9.534;2023-07-13T11:47:33;98657.31;;;27.85;17.97
63321;BME280;49449;48.800;9.534;2023-07-13T11:50:01;98652.91;;;27.93;19.31
63321;BME280;49449;48.800;9.534;2023-07-13T11:52:32;98656.41;;;27.93;16.95
63321;BME280;49449;48.800;9.534;2023-07-13T11:55:03;98657.41;;;27.89;17.83
63321;BME280;49449;48.800;9.534;2023-07-13T11:57:41;98651.75;;;27.94;18.55
63321;BME280;49449;48.800;9.534;2023-07-13T12:00:15;98667.50;;;27.88;18.80
63321;BME280;49449;48.800;9.534;2023-07-13T12:02:47;98663.75;;;27.93;17.76
63321;BME280;49449;48.800;9.534;2023-07-13T12:05:17;98658.34;;;27.81;17.68
63321;BME280;49449;48.800;9.534;2023-07-13T12:07:47;98654.56;;;27.61;17.59
63321;BME280;49449;48.800;9.534;2023-07-13T12:10:19;98658.53;;;27.51;17.84
63321;BME280;49449;48.800;9.534;2023-07-13T12:12:50;98652.66;;;27.61;17.85
63321;BME280;49449;48.800;9.534;2023-07-13T12:15:19;98655.94;;;27.67;17.47
63321;BME280;49449;48.800;9.534;2023-07-13T12:17:49;98664.22;;;27.70;17.74
63321;BME280;49449;48.800;9.534;2023-07-13T12:20:21;98659.78;;;27.53;18.51
63321;BME280;49449;48.800;9.534;2023-07-13T12:22:53;98659.31;;;27.51;18.83
63321;BME280;49449;48.800;9.534;2023-07-13T12:25:22;98652.78;;;27.52;17.68
63321;BME280;49449;48.800;9.534;2023-07-13T12:27:51;98655.19;;;27.08;17.85
63321;BME280;49449;48.800;9.534;2023-07-13T12:30:25;98657.63;;;26.89;18.36
63321;BME280;49449;48.800;9.534;2023-07-13T12:33:06;98662.72;;;27.03;18.84
63321;BME280;49449;48.800;9.534;2023-07-13T12:35:40;98653.03;;;27.14;18.68
63321;BME280;49449;48.800;9.534;2023-07-13T12:38:16;98658.97;;;27.28;18.39
63321;BME280;49449;48.800;9.534;2023-07-13T12:40:44;98654.78;;;27.43;18.07
63321;BME280;49449;48.800;9.534;2023-07-13T12:43:14;98647.56;;;27.60;17.60
63321;BME280;49449;48.800;9.534;2023-07-13T12:45:55;98650.41;;;27.51;18.19
63321;BME280;49449;48.800;9.534;2023-07-13T12:48:23;98642.16;;;27.60;18.14
63321;BME280;49449;48.800;9.534;2023-07-13T12:51:00;98642.81;;;27.69;18.52
63321;BME280;49449;48.800;9.534;2023-07-13T12:53:30;98641.47;;;27.50;17.19
63321;BME280;49449;48.800;9.534;2023-07-13T12:56:01;98638.78;;;27.63;17.90
63321;BME280;49449;48.800;9.534;2023-07-13T12:58:31;98637.63;;;27.51;18.33
63321;BME280;49449;48.800;9.534;2023-07-13T13:01:02;98639.66;;;27.54;18.01
63321;BME280;49449;48.800;9.534;2023-07-13T13:03:32;98643.50;;;27.66;18.89
63321;BME280;49449;48.800;9.534;2023-07-13T13:06:02;98644.31;;;27.66;18.56
63321;BME280;49449;48.800;9.534;2023-07-13T13:08:33;98647.13;;;27.58;17.53
63321;BME280;49449;48.800;9.534;2023-07-13T13:11:01;98642.03;;;27.68;18.51
63321;BME280;49449;48.800;9.534;2023-07-13T13:13:29;98634.47;;;27.74;18.12
63321;BME280;49449;48.800;9.534;2023-07-13T13:16:01;98632.31;;;27.80;17.52
63321;BME280;49449;48.800;9.534;2023-07-13T13:18:32;98629.28;;;27.81;18.14
63321;BME280;49449;48.800;9.534;2023-07-13T13:21:01;98642.16;;;27.60;17.99
63321;BME280;49449;48.800;9.534;2023-07-13T13:23:29;98639.56;;;27.75;18.34